createdAt,value
2023-05-24T00:00:55.892Z,12.57
2023-05-24T00:03:23.564Z,10.52
2023-05-24T00:05:52.536Z,8.75
2023-05-24T00:08:19.643Z,7.38
2023-05-24T00:10:46.737Z,5.55
2023-05-24T00:13:15.377Z,6.82
2023-05-24T00:15:42.590Z,3.00
2023-05-24T00:18:09.734Z,2.60
2023-05-24T00:20:36.945Z,2.55
2023-05-24T00:23:04.153Z,4.15
2023-05-24T00:25:31.281Z,3.97
2023-05-24T00:27:58.418Z,1.92
2023-05-24T00:30:27.189Z,4.45
2023-05-24T00:32:55.877Z,2.97
2023-05-24T00:35:23.744Z,2.40
2023-05-24T00:37:51.295Z,1.55
2023-05-24T00:40:18.444Z,2.95
2023-05-24T00:42:45.593Z,4.13
2023-05-24T00:45:12.937Z,1.38
2023-05-24T00:47:41.053Z,2.28
2023-05-24T00:50:09.958Z,1.15
2023-05-24T00:52:37.740Z,1.30
2023-05-24T00:55:05.915Z,3.97
2023-05-24T00:57:33.788Z,1.20
2023-05-24T01:00:01.022Z,1.30
2023-05-24T01:02:28.376Z,1.20
2023-05-24T01:04:56.379Z,1.05
2023-05-24T01:07:52.692Z,1.40
2023-05-24T01:10:55.241Z,2.75
2023-05-24T01:14:04.867Z,0.90
2023-05-24T01:16:56.620Z,1.90
2023-05-24T01:20:12.001Z,0.90
2023-05-24T01:22:58.591Z,3.15
2023-05-24T01:25:47.769Z,1.10
2023-05-24T01:28:41.299Z,4.20
2023-05-24T01:31:08.714Z,4.50
2023-05-24T01:33:35.971Z,2.78
2023-05-24T01:36:03.122Z,2.90
2023-05-24T01:38:30.258Z,6.63
2023-05-24T01:41:05.812Z,4.10
2023-05-24T01:43:41.604Z,2.30
2023-05-24T01:46:36.522Z,3.95
2023-05-24T01:49:09.337Z,1.98
2023-05-24T01:51:53.831Z,3.72
2023-05-24T01:54:26.168Z,3.00
2023-05-24T01:56:56.236Z,4.22
2023-05-24T01:59:26.262Z,4.82
2023-05-24T02:01:54.014Z,5.25
2023-05-24T02:04:21.481Z,5.68
2023-05-24T02:06:48.600Z,6.00
2023-05-24T02:09:16.856Z,6.28
2023-05-24T02:11:44.012Z,6.22
2023-05-24T02:14:11.389Z,8.13
2023-05-24T02:16:42.897Z,5.65
2023-05-24T02:19:10.166Z,7.53
2023-05-24T02:21:37.277Z,5.03
2023-05-24T02:24:04.760Z,4.60
2023-05-24T02:26:31.874Z,3.88
2023-05-24T02:28:58.959Z,7.68
2023-05-24T02:31:28.878Z,6.30
2023-05-24T02:33:57.136Z,5.90
2023-05-24T02:36:24.802Z,3.80
2023-05-24T02:38:52.044Z,5.63
2023-05-24T02:41:19.602Z,3.42
2023-05-24T02:43:47.728Z,5.30
2023-05-24T02:46:15.451Z,5.13
2023-05-24T02:48:42.583Z,9.27
2023-05-24T02:51:09.723Z,6.05
2023-05-24T02:53:36.839Z,4.22
2023-05-24T02:56:04.032Z,4.07
2023-05-24T02:58:32.498Z,3.53
2023-05-24T03:00:59.709Z,5.45
2023-05-24T03:03:27.286Z,5.70
2023-05-24T03:05:54.578Z,4.60
2023-05-24T03:08:21.667Z,3.42
2023-05-24T03:10:48.937Z,8.35
2023-05-24T03:13:16.051Z,7.30
2023-05-24T03:15:43.223Z,12.43
2023-05-24T03:18:10.440Z,3.58
2023-05-24T03:20:39.615Z,4.50
2023-05-24T03:23:09.736Z,4.82
2023-05-24T03:25:36.877Z,3.97
2023-05-24T03:28:04.563Z,5.95
2023-05-24T03:30:33.032Z,7.18
2023-05-24T03:33:01.463Z,5.75
2023-05-24T03:35:29.878Z,7.13
2023-05-24T03:37:57.276Z,4.40
2023-05-24T03:40:25.968Z,5.82
2023-05-24T03:42:58.552Z,4.72
2023-05-24T03:45:43.526Z,6.18
2023-05-24T03:48:10.663Z,4.72
2023-05-24T03:50:37.738Z,5.32
2023-05-24T03:53:04.982Z,5.90
2023-05-24T03:55:32.044Z,4.68
2023-05-24T03:57:59.207Z,8.23
2023-05-24T04:00:26.328Z,6.05
2023-05-24T04:02:56.135Z,8.07
2023-05-24T04:05:27.303Z,4.05
2023-05-24T04:07:54.608Z,4.88
2023-05-24T04:10:24.987Z,4.55
2023-05-24T04:12:52.157Z,5.15
2023-05-24T04:15:19.258Z,3.80
2023-05-24T04:17:47.390Z,5.72
2023-05-24T04:20:16.217Z,7.85
2023-05-24T04:22:44.559Z,4.90
2023-05-24T04:25:12.350Z,6.78
2023-05-24T04:27:40.089Z,5.70
2023-05-24T04:30:09.497Z,5.63
2023-05-24T04:32:37.032Z,5.85
2023-05-24T04:35:05.709Z,6.63
2023-05-24T04:37:33.802Z,7.72
2023-05-24T04:40:00.904Z,6.20
2023-05-24T04:42:32.259Z,6.80
2023-05-24T04:44:59.652Z,5.60
2023-05-24T04:47:26.937Z,5.68
2023-05-24T04:49:54.560Z,7.40
2023-05-24T04:52:21.741Z,3.67
2023-05-24T04:54:50.003Z,5.88
2023-05-24T04:57:17.527Z,6.40
2023-05-24T04:59:47.344Z,4.05
2023-05-24T05:02:14.496Z,3.95
2023-05-24T05:04:41.564Z,4.78
2023-05-24T05:07:08.952Z,7.20
2023-05-24T05:09:36.008Z,6.68
2023-05-24T05:12:03.924Z,5.15
2023-05-24T05:14:30.967Z,8.50
2023-05-24T05:16:59.160Z,4.75
2023-05-24T05:19:26.252Z,7.75
2023-05-24T05:21:53.353Z,7.78
2023-05-24T05:24:20.592Z,7.72
2023-05-24T05:26:47.857Z,9.20
2023-05-24T05:29:14.921Z,4.32
2023-05-24T05:31:42.058Z,7.28
2023-05-24T05:34:10.176Z,4.20
2023-05-24T05:36:42.676Z,5.45
2023-05-24T05:39:09.997Z,3.25
2023-05-24T05:41:39.165Z,6.47
2023-05-24T05:44:06.855Z,4.43
2023-05-24T05:46:34.006Z,4.68
2023-05-24T05:49:01.198Z,4.95
2023-05-24T05:51:28.365Z,7.57
2023-05-24T05:53:55.618Z,8.65
2023-05-24T05:56:22.820Z,5.03
2023-05-24T05:58:52.563Z,9.10
2023-05-24T06:01:19.789Z,13.60
2023-05-24T06:03:47.031Z,9.02
2023-05-24T06:06:14.373Z,9.18
2023-05-24T06:08:42.000Z,7.30
2023-05-24T06:11:09.192Z,5.70
2023-05-24T06:13:36.366Z,8.98
2023-05-24T06:16:03.499Z,7.45
2023-05-24T06:18:32.637Z,11.68
2023-05-24T06:20:59.763Z,9.52
2023-05-24T06:23:26.843Z,9.82
2023-05-24T06:25:53.983Z,8.73
2023-05-24T06:28:21.127Z,14.05
2023-05-24T06:30:48.406Z,9.13
2023-05-24T06:33:16.138Z,8.77
2023-05-24T06:35:43.346Z,8.40
2023-05-24T06:38:10.588Z,12.45
2023-05-24T06:40:37.694Z,15.15
2023-05-24T06:43:05.092Z,12.50
2023-05-24T06:45:32.346Z,12.77
2023-05-24T06:47:59.595Z,12.07
2023-05-24T06:50:27.513Z,10.35
2023-05-24T06:52:54.639Z,11.25
2023-05-24T06:55:21.745Z,15.05
2023-05-24T06:57:48.870Z,15.00
2023-05-24T07:00:16.905Z,13.27
2023-05-24T07:02:44.224Z,11.50
2023-05-24T07:05:14.155Z,14.75
2023-05-24T07:07:42.478Z,15.48
2023-05-24T07:10:11.181Z,12.70
2023-05-24T07:12:38.927Z,13.57
2023-05-24T07:15:07.346Z,10.35
2023-05-24T07:17:34.690Z,13.13
2023-05-24T07:20:02.531Z,11.55
2023-05-24T07:22:31.730Z,10.23
2023-05-24T07:24:58.905Z,13.07
2023-05-24T07:27:25.982Z,23.23
2023-05-24T07:29:53.087Z,11.40
2023-05-24T07:32:20.415Z,12.88
2023-05-24T07:34:47.524Z,10.15
2023-05-24T07:37:14.670Z,11.00
2023-05-24T07:39:41.808Z,16.77
2023-05-24T07:42:08.921Z,16.52
2023-05-24T07:44:36.285Z,10.10
2023-05-24T07:47:03.435Z,11.48
2023-05-24T07:49:30.639Z,15.00
2023-05-24T07:51:59.654Z,17.08
2023-05-24T07:54:26.842Z,13.52
2023-05-24T07:56:54.021Z,15.23
2023-05-24T07:59:21.966Z,14.45
2023-05-24T08:01:49.101Z,11.52
2023-05-24T08:04:16.386Z,9.95
2023-05-24T08:06:43.518Z,15.57
2023-05-24T08:09:10.750Z,13.15
2023-05-24T08:11:37.868Z,15.18
2023-05-24T08:14:04.949Z,21.10
2023-05-24T08:16:32.257Z,18.38
2023-05-24T08:18:59.554Z,18.23
2023-05-24T08:21:27.871Z,20.63
2023-05-24T08:23:55.294Z,20.38
2023-05-24T08:26:22.619Z,13.48
2023-05-24T08:28:49.918Z,13.25
2023-05-24T08:31:17.233Z,17.05
2023-05-24T08:33:44.860Z,13.32
2023-05-24T08:36:12.316Z,15.90
2023-05-24T08:38:42.426Z,11.65
2023-05-24T08:41:11.881Z,13.00
2023-05-24T08:43:39.326Z,15.57
2023-05-24T08:46:07.743Z,16.83
2023-05-24T08:48:43.281Z,10.95
2023-05-24T08:51:11.194Z,12.70
2023-05-24T08:53:39.867Z,13.57
2023-05-24T08:56:10.476Z,15.57
2023-05-24T08:58:40.617Z,10.52
2023-05-24T09:01:08.011Z,11.82
2023-05-24T09:03:37.163Z,12.10
2023-05-24T09:06:04.811Z,15.63
2023-05-24T09:08:35.293Z,9.20
2023-05-24T09:11:03.732Z,9.48
2023-05-24T09:13:32.180Z,13.32
2023-05-24T09:16:02.847Z,16.95
2023-05-24T09:18:30.069Z,13.55
2023-05-24T09:20:57.307Z,10.35
2023-05-24T09:23:27.085Z,11.80
2023-05-24T09:25:54.314Z,10.43
2023-05-24T09:28:22.036Z,11.95
2023-05-24T09:31:06.356Z,11.07
2023-05-24T09:33:36.251Z,9.00
2023-05-24T09:36:05.597Z,7.85
2023-05-24T09:38:33.686Z,9.70
2023-05-24T09:41:06.594Z,6.97
2023-05-24T09:43:46.505Z,9.45
2023-05-24T09:46:18.876Z,8.95
2023-05-24T09:49:04.130Z,8.10
2023-05-24T09:51:31.357Z,9.45
2023-05-24T09:54:01.536Z,8.60
2023-05-24T09:56:29.943Z,14.07
2023-05-24T09:58:58.184Z,12.15
2023-05-24T10:01:27.026Z,11.25
2023-05-24T10:03:55.992Z,8.40
2023-05-24T10:06:24.185Z,10.73
2023-05-24T10:08:52.318Z,11.45
2023-05-24T10:11:19.496Z,10.75
2023-05-24T10:13:47.966Z,10.68
2023-05-24T10:16:15.926Z,11.93
2023-05-24T10:18:43.106Z,11.95
2023-05-24T10:21:11.472Z,9.68
2023-05-24T10:23:39.864Z,7.18
2023-05-24T10:26:11.361Z,9.10
2023-05-24T10:28:44.821Z,10.05
2023-05-24T10:31:17.493Z,14.90
2023-05-24T10:33:48.488Z,11.00
2023-05-24T10:36:16.660Z,12.35
2023-05-24T10:38:46.367Z,15.63
2023-05-24T10:41:14.149Z,13.70
2023-05-24T10:43:56.808Z,14.75
2023-05-24T10:46:33.494Z,19.27
2023-05-24T10:49:02.771Z,9.40
2023-05-24T10:51:38.595Z,7.88
2023-05-24T10:54:19.211Z,9.35
2023-05-24T10:56:50.876Z,10.10
2023-05-24T10:59:39.817Z,13.40
2023-05-24T11:02:15.216Z,13.50
2023-05-24T11:04:49.541Z,13.77
2023-05-24T11:07:19.442Z,16.85
2023-05-24T11:09:53.091Z,8.90
2023-05-24T11:12:23.840Z,6.63
2023-05-24T11:14:53.237Z,10.13
2023-05-24T11:17:24.216Z,8.15
2023-05-24T11:19:53.652Z,13.20
2023-05-24T11:22:22.563Z,11.38
2023-05-24T11:24:50.119Z,10.93
2023-05-24T11:27:17.375Z,19.65
2023-05-24T11:29:46.794Z,15.18
2023-05-24T11:32:19.118Z,10.65
2023-05-24T11:34:49.943Z,11.35
2023-05-24T11:37:18.775Z,15.50
2023-05-24T11:39:54.353Z,14.73
2023-05-24T11:42:23.579Z,18.77
2023-05-24T11:44:50.797Z,12.07
2023-05-24T11:47:20.912Z,11.02
2023-05-24T11:49:52.357Z,10.82
2023-05-24T11:52:19.618Z,12.45
2023-05-24T11:54:46.863Z,15.57
2023-05-24T11:57:14.565Z,15.15
2023-05-24T11:59:42.030Z,9.00
2023-05-24T12:02:09.261Z,11.65
2023-05-24T12:04:36.600Z,12.00
2023-05-24T12:07:03.824Z,11.32
2023-05-24T12:09:31.014Z,7.72
2023-05-24T12:11:58.824Z,15.63
2023-05-24T12:14:31.367Z,17.08
2023-05-24T12:16:59.332Z,15.05
2023-05-24T12:19:33.972Z,12.82
2023-05-24T12:22:05.361Z,9.57
2023-05-24T12:24:32.925Z,15.27
2023-05-24T12:27:02.716Z,10.82
2023-05-24T12:29:38.698Z,11.43
2023-05-24T12:32:13.661Z,14.82
2023-05-24T12:34:42.618Z,14.15
2023-05-24T12:37:15.565Z,6.18
2023-05-24T12:39:44.516Z,9.15
2023-05-24T12:42:30.586Z,9.75
2023-05-24T12:44:57.689Z,12.52
2023-05-24T12:47:24.981Z,16.67
2023-05-24T12:49:53.232Z,11.43
2023-05-24T12:52:20.434Z,8.25
2023-05-24T12:54:47.585Z,14.63
2023-05-24T12:57:22.792Z,9.90
2023-05-24T12:59:50.403Z,14.43
2023-05-24T13:02:17.473Z,12.98
2023-05-24T13:05:01.621Z,7.68
2023-05-24T13:07:28.797Z,12.55
2023-05-24T13:09:55.992Z,10.30
2023-05-24T13:12:23.156Z,17.38
2023-05-24T13:14:52.696Z,10.45
2023-05-24T13:17:20.627Z,13.88
2023-05-24T13:19:47.830Z,9.23
2023-05-24T13:22:14.972Z,15.77
2023-05-24T13:24:42.360Z,11.05
2023-05-24T13:27:09.789Z,12.30
2023-05-24T13:29:45.614Z,9.95
2023-05-24T13:32:20.079Z,8.05
2023-05-24T13:34:47.287Z,8.30
2023-05-24T13:37:16.043Z,7.30
2023-05-24T13:39:43.363Z,7.03
2023-05-24T13:42:10.793Z,6.32
2023-05-24T13:44:38.115Z,10.68
2023-05-24T13:47:06.407Z,11.25
2023-05-24T13:49:34.100Z,7.60
2023-05-24T13:52:01.576Z,8.45
2023-05-24T13:54:28.767Z,17.55
2023-05-24T13:56:57.769Z,12.32
2023-05-24T13:59:24.969Z,9.45
2023-05-24T14:01:52.139Z,7.95
2023-05-24T14:04:19.869Z,11.57
2023-05-24T14:06:46.987Z,8.55
2023-05-24T14:09:14.540Z,8.55
2023-05-24T14:11:41.794Z,9.10
2023-05-24T14:16:38.955Z,8.55
2023-05-24T14:19:07.380Z,5.68
2023-05-24T14:21:34.637Z,9.68
2023-05-24T14:24:01.860Z,6.05
2023-05-24T14:26:28.995Z,7.72
2023-05-24T14:28:57.083Z,12.80
2023-05-24T14:31:24.829Z,9.60
2023-05-24T14:33:52.036Z,8.43
2023-05-24T14:36:19.447Z,5.93
2023-05-24T14:38:46.870Z,5.78
2023-05-24T14:41:14.046Z,9.00
2023-05-24T14:43:42.080Z,6.63
2023-05-24T14:46:09.721Z,9.57
2023-05-24T14:48:37.476Z,9.05
2023-05-24T14:51:04.698Z,10.35
2023-05-24T14:53:31.989Z,7.18
2023-05-24T14:55:59.324Z,14.30
2023-05-24T14:58:27.303Z,7.03
2023-05-24T15:00:54.399Z,5.90
2023-05-24T15:03:24.372Z,6.22
2023-05-24T15:05:52.619Z,12.13
2023-05-24T15:08:19.968Z,7.80
2023-05-24T15:10:47.064Z,8.80
2023-05-24T15:13:14.246Z,8.65
2023-05-24T15:15:43.241Z,8.50
2023-05-24T15:18:10.667Z,10.05
2023-05-24T15:20:38.014Z,13.15
2023-05-24T15:23:05.304Z,11.80
2023-05-24T15:25:32.360Z,10.43
2023-05-24T15:27:59.583Z,11.13
2023-05-24T15:30:26.748Z,10.40
2023-05-24T15:32:53.955Z,11.68
2023-05-24T15:35:21.783Z,11.27
2023-05-24T15:37:48.874Z,9.45
2023-05-24T15:40:16.320Z,9.80
2023-05-24T15:42:44.014Z,12.15
2023-05-24T15:45:11.882Z,8.32
2023-05-24T15:47:40.514Z,8.18
2023-05-24T15:50:10.664Z,7.07
2023-05-24T15:52:37.916Z,11.32
2023-05-24T15:55:05.532Z,10.43
2023-05-24T15:57:32.727Z,10.43
2023-05-24T16:00:00.008Z,9.05
2023-05-24T16:02:27.398Z,7.95
2023-05-24T16:04:55.669Z,13.30
2023-05-24T16:07:23.249Z,7.90
2023-05-24T16:09:53.163Z,5.22
2023-05-24T16:12:20.299Z,10.48
2023-05-24T16:14:47.505Z,7.10
2023-05-24T16:17:17.433Z,7.00
2023-05-24T16:19:46.561Z,7.07
2023-05-24T16:22:14.639Z,8.57
2023-05-24T16:24:42.073Z,10.43
2023-05-24T16:27:09.557Z,8.93
2023-05-24T16:29:37.300Z,8.38
2023-05-24T16:32:04.938Z,5.82
2023-05-24T16:34:38.761Z,13.23
2023-05-24T16:37:13.302Z,7.38
2023-05-24T16:39:40.743Z,7.15
2023-05-24T16:42:08.560Z,7.50
2023-05-24T16:44:35.747Z,10.02
2023-05-24T16:47:02.814Z,7.85
2023-05-24T16:49:30.102Z,9.80
2023-05-24T16:51:57.560Z,12.43
2023-05-24T16:54:24.641Z,7.35
2023-05-24T16:56:55.508Z,9.95
2023-05-24T16:59:23.306Z,7.07
2023-05-24T17:01:52.029Z,9.52
2023-05-24T17:04:19.590Z,6.50
2023-05-24T17:06:46.769Z,14.10
2023-05-24T17:09:13.930Z,10.43
2023-05-24T17:11:41.117Z,7.80
2023-05-24T17:14:08.310Z,16.38
2023-05-24T17:16:35.894Z,8.65
2023-05-24T17:19:03.689Z,6.38
2023-05-24T17:21:31.589Z,6.38
2023-05-24T17:23:59.855Z,9.60
2023-05-24T17:26:27.690Z,8.07
2023-05-24T17:28:54.756Z,7.30
2023-05-24T17:31:22.076Z,7.35
2023-05-24T17:33:49.508Z,8.50
2023-05-24T17:36:16.800Z,5.30
2023-05-24T17:38:43.925Z,7.05
2023-05-24T17:41:11.098Z,6.78
2023-05-24T17:43:40.205Z,9.38
2023-05-24T17:46:07.799Z,8.98
2023-05-24T17:48:39.336Z,6.10
2023-05-24T17:51:08.354Z,7.60
2023-05-24T17:53:36.961Z,4.63
2023-05-24T17:56:05.396Z,8.40
2023-05-24T17:58:36.646Z,6.45
2023-05-24T18:01:08.556Z,8.90
2023-05-24T18:03:37.405Z,6.55
2023-05-24T18:06:06.996Z,9.30
2023-05-24T18:08:37.339Z,7.45
2023-05-24T18:11:08.649Z,6.00
2023-05-24T18:13:43.307Z,5.85
2023-05-24T18:16:11.556Z,7.45
2023-05-24T18:18:38.943Z,12.48
2023-05-24T18:21:06.390Z,5.35
2023-05-24T18:23:37.692Z,6.15
2023-05-24T18:26:09.410Z,5.22
2023-05-24T18:28:37.738Z,4.65
2023-05-24T18:31:08.763Z,4.88
2023-05-24T18:33:36.728Z,7.30
2023-05-24T18:36:05.564Z,7.75
2023-05-24T18:38:36.904Z,6.00
2023-05-24T18:41:06.483Z,6.00
2023-05-24T18:43:33.905Z,5.72
2023-05-24T18:46:01.680Z,6.30
2023-05-24T18:48:28.827Z,10.98
2023-05-24T18:50:56.047Z,8.65
2023-05-24T18:53:23.185Z,8.77
2023-05-24T18:55:50.291Z,5.30
2023-05-24T18:58:17.386Z,7.65
2023-05-24T19:00:44.548Z,10.90
2023-05-24T19:03:12.232Z,6.10
2023-05-24T19:05:42.560Z,7.10
2023-05-24T19:08:11.036Z,8.48
2023-05-24T19:10:38.116Z,8.98
2023-05-24T19:13:06.647Z,9.70
2023-05-24T19:15:35.642Z,8.93
2023-05-24T19:18:03.452Z,6.78
2023-05-24T19:20:30.662Z,7.05
2023-05-24T19:22:57.918Z,4.68
2023-05-24T19:25:25.057Z,7.55
2023-05-24T19:27:59.060Z,7.90
2023-05-24T19:30:27.481Z,10.80
2023-05-24T19:32:54.730Z,7.07
2023-05-24T19:35:21.947Z,6.93
2023-05-24T19:37:49.009Z,7.07
2023-05-24T19:40:16.326Z,9.95
2023-05-24T19:42:43.497Z,8.52
2023-05-24T19:45:12.125Z,8.82
2023-05-24T19:47:39.909Z,7.32
2023-05-24T19:50:07.882Z,8.38
2023-05-24T19:52:35.168Z,10.90
2023-05-24T19:55:02.298Z,8.02
2023-05-24T19:57:29.438Z,11.00
2023-05-24T19:59:57.577Z,11.35
2023-05-24T20:02:24.830Z,11.02
2023-05-24T20:04:51.874Z,9.65
2023-05-24T20:07:18.992Z,10.23
2023-05-24T20:09:46.052Z,9.60
2023-05-24T20:12:13.203Z,15.23
2023-05-24T20:14:40.258Z,11.35
2023-05-24T20:17:07.419Z,11.18
2023-05-24T20:19:34.497Z,11.23
2023-05-24T20:22:01.562Z,11.32
2023-05-24T20:24:28.676Z,17.25
2023-05-24T20:26:55.837Z,11.88
2023-05-24T20:29:22.903Z,9.52
2023-05-24T20:31:50.063Z,13.02
2023-05-24T20:34:17.185Z,9.85
2023-05-24T20:36:44.231Z,12.82
2023-05-24T20:39:11.754Z,11.20
2023-05-24T20:41:38.805Z,9.93
2023-05-24T20:44:05.957Z,9.43
2023-05-24T20:46:33.109Z,12.90
2023-05-24T20:49:00.522Z,11.18
2023-05-24T20:51:27.554Z,15.88
2023-05-24T20:53:54.820Z,12.40
2023-05-24T20:56:23.312Z,12.75
2023-05-24T20:58:53.247Z,11.23
2023-05-24T21:01:21.266Z,10.35
2023-05-24T21:03:48.491Z,16.05
2023-05-24T21:06:15.633Z,10.48
2023-05-24T21:08:43.495Z,14.52
2023-05-24T21:11:10.725Z,10.30
2023-05-24T21:13:37.894Z,13.07
2023-05-24T21:16:05.206Z,11.40
2023-05-24T21:18:33.549Z,12.27
2023-05-24T21:21:00.793Z,15.95
2023-05-24T21:23:28.142Z,9.45
2023-05-24T21:25:55.212Z,11.13
2023-05-24T21:28:22.343Z,13.30
2023-05-24T21:30:49.476Z,10.77
2023-05-24T21:33:16.914Z,17.67
2023-05-24T21:35:44.252Z,12.65
2023-05-24T21:38:11.628Z,10.50
2023-05-24T21:40:38.730Z,14.65
2023-05-24T21:43:05.912Z,12.63
2023-05-24T21:45:32.984Z,13.60
2023-05-24T21:48:00.102Z,15.98
2023-05-24T21:50:27.234Z,15.20
2023-05-24T21:52:54.286Z,12.63
2023-05-24T21:55:21.379Z,13.80
2023-05-24T21:57:48.563Z,10.57
2023-05-24T22:00:17.229Z,16.88
2023-05-24T22:02:44.469Z,11.82
2023-05-24T22:05:11.778Z,13.13
2023-05-24T22:07:38.991Z,12.90
2023-05-24T22:10:07.470Z,15.20
2023-05-24T22:12:35.491Z,12.50
2023-05-24T22:15:02.844Z,16.58
2023-05-24T22:17:32.957Z,12.20
2023-05-24T22:20:04.903Z,10.68
2023-05-24T22:22:32.386Z,12.60
2023-05-24T22:25:02.302Z,12.32
2023-05-24T22:27:30.360Z,13.35
2023-05-24T22:29:57.428Z,13.27
2023-05-24T22:32:24.561Z,13.98
2023-05-24T22:34:51.654Z,13.43
2023-05-24T22:37:18.833Z,11.70
2023-05-24T22:39:46.115Z,13.18
2023-05-24T22:42:13.246Z,15.35
2023-05-24T22:44:40.290Z,12.63
2023-05-24T22:47:08.261Z,20.05
2023-05-24T22:49:35.901Z,13.75
2023-05-24T22:52:03.062Z,13.40
2023-05-24T22:54:31.772Z,17.15
2023-05-24T22:56:59.071Z,18.95
2023-05-24T22:59:26.164Z,14.50
2023-05-24T23:01:53.329Z,15.25
2023-05-24T23:04:21.860Z,14.98
2023-05-24T23:06:53.472Z,12.98
2023-05-24T23:09:34.943Z,21.95
2023-05-24T23:12:08.082Z,19.30
2023-05-24T23:14:41.545Z,15.20
2023-05-24T23:17:13.609Z,16.67
2023-05-24T23:19:44.156Z,14.75
2023-05-24T23:22:12.351Z,14.60
2023-05-24T23:24:42.463Z,20.63
2023-05-24T23:27:09.866Z,13.13
2023-05-24T23:29:39.210Z,15.65
2023-05-24T23:32:08.061Z,14.00
2023-05-24T23:34:35.421Z,19.98
2023-05-24T23:37:04.726Z,15.40
2023-05-24T23:39:31.945Z,11.95
2023-05-24T23:41:59.045Z,15.77
2023-05-24T23:44:26.530Z,17.77
2023-05-24T23:46:53.960Z,15.35
2023-05-24T23:49:21.193Z,16.27
2023-05-24T23:51:48.319Z,22.77
2023-05-24T23:54:15.889Z,16.60
2023-05-24T23:56:42.987Z,16.20
2023-05-24T23:59:11.200Z,16.95
